sensor_id;sensor_type;location;lat;lon;timestamp;temperature;humidity
21039;DHT22;10678;51.002;4.786;2023-11-21T00:02:04;10.90;99.90
21039;DHT22;10678;51.002;4.786;2023-11-21T00:04:30;10.90;99.90
21039;DHT22;10678;51.002;4.786;2023-11-21T00:06:55;10.80;99.90
21039;DHT22;10678;51.002;4.786;2023-11-21T00:09:21;10.90;99.90
21039;DHT22;10678;51.002;4.786;2023-11-21T00:11:47;10.90;99.90
21039;DHT22;10678;51.002;4.786;2023-11-21T00:14:12;11.00;99.90
21039;DHT22;10678;51.002;4.786;2023-11-21T00:16:41;11.00;99.90
21039;DHT22;10678;51.002;4.786;2023-11-21T00:19:06;10.90;99.90
21039;DHT22;10678;51.002;4.786;2023-11-21T00:21:32;10.90;99.90
21039;DHT22;10678;51.002;4.786;2023-11-21T00:23:58;10.80;99.90
21039;DHT22;10678;51.002;4.786;2023-11-21T00:26:23;10.90;99.90
21039;DHT22;10678;51.002;4.786;2023-11-21T00:28:50;10.90;99.90
21039;DHT22;10678;51.002;4.786;2023-11-21T00:31:16;10.90;99.90
21039;DHT22;10678;51.002;4.786;2023-11-21T00:33:42;10.90;99.90
21039;DHT22;10678;51.002;4.786;2023-11-21T00:36:08;10.90;99.90
21039;DHT22;10678;51.002;4.786;2023-11-21T00:38:38;10.90;99.90
21039;DHT22;10678;51.002;4.786;2023-11-21T00:41:06;10.90;99.90
21039;DHT22;10678;51.002;4.786;2023-11-21T00:43:32;10.90;99.90
21039;DHT22;10678;51.002;4.786;2023-11-21T00:45:59;10.80;99.90
21039;DHT22;10678;51.002;4.786;2023-11-21T00:48:24;10.80;99.90
21039;DHT22;10678;51.002;4.786;2023-11-21T00:50:50;10.60;99.90
21039;DHT22;10678;51.002;4.786;2023-11-21T00:53:16;10.60;99.90
21039;DHT22;10678;51.002;4.786;2023-11-21T00:55:41;10.50;99.90
21039;DHT22;10678;51.002;4.786;2023-11-21T00:58:07;10.40;99.90
21039;DHT22;10678;51.002;4.786;2023-11-21T01:00:35;10.30;99.90
21039;DHT22;10678;51.002;4.786;2023-11-21T01:03:04;10.20;99.90
21039;DHT22;10678;51.002;4.786;2023-11-21T01:05:30;10.10;99.90
21039;DHT22;10678;51.002;4.786;2023-11-21T01:07:56;10.10;99.90
21039;DHT22;10678;51.002;4.786;2023-11-21T01:10:21;10.00;99.90
21039;DHT22;10678;51.002;4.786;2023-11-21T01:12:47;10.00;99.90
21039;DHT22;10678;51.002;4.786;2023-11-21T01:15:13;10.00;99.90
21039;DHT22;10678;51.002;4.786;2023-11-21T01:17:39;9.90;99.90
21039;DHT22;10678;51.002;4.786;2023-11-21T01:20:05;9.90;99.90
21039;DHT22;10678;51.002;4.786;2023-11-21T01:22:36;9.90;99.90
21039;DHT22;10678;51.002;4.786;2023-11-21T01:25:02;9.80;99.90
21039;DHT22;10678;51.002;4.786;2023-11-21T01:27:29;9.80;99.90
21039;DHT22;10678;51.002;4.786;2023-11-21T01:29:55;9.80;99.90
21039;DHT22;10678;51.002;4.786;2023-11-21T01:32:21;9.70;99.90
21039;DHT22;10678;51.002;4.786;2023-11-21T01:34:47;9.80;99.90
21039;DHT22;10678;51.002;4.786;2023-11-21T01:37:13;9.80;99.90
21039;DHT22;10678;51.002;4.786;2023-11-21T01:39:39;9.80;99.90
21039;DHT22;10678;51.002;4.786;2023-11-21T01:42:05;9.80;99.90
21039;DHT22;10678;51.002;4.786;2023-11-21T01:44:31;9.70;99.90
21039;DHT22;10678;51.002;4.786;2023-11-21T01:46:57;9.70;99.90
21039;DHT22;10678;51.002;4.786;2023-11-21T01:49:23;9.70;99.90
21039;DHT22;10678;51.002;4.786;2023-11-21T01:51:49;9.70;99.90
21039;DHT22;10678;51.002;4.786;2023-11-21T01:54:17;9.80;99.90
21039;DHT22;10678;51.002;4.786;2023-11-21T01:56:47;9.70;99.90
21039;DHT22;10678;51.002;4.786;2023-11-21T01:59:18;9.70;99.90
21039;DHT22;10678;51.002;4.786;2023-11-21T02:01:45;9.60;99.90
21039;DHT22;10678;51.002;4.786;2023-11-21T02:04:12;9.60;99.90
21039;DHT22;10678;51.002;4.786;2023-11-21T02:06:38;9.50;99.90
21039;DHT22;10678;51.002;4.786;2023-11-21T02:09:04;9.50;99.90
21039;DHT22;10678;51.002;4.786;2023-11-21T02:11:30;9.50;99.90
21039;DHT22;10678;51.002;4.786;2023-11-21T02:13:58;9.40;99.90
21039;DHT22;10678;51.002;4.786;2023-11-21T02:16:24;9.40;99.90
21039;DHT22;10678;51.002;4.786;2023-11-21T02:18:51;9.40;99.90
21039;DHT22;10678;51.002;4.786;2023-11-21T02:21:17;9.40;99.90
21039;DHT22;10678;51.002;4.786;2023-11-21T02:23:44;9.40;99.90
21039;DHT22;10678;51.002;4.786;2023-11-21T02:26:12;9.40;99.90
21039;DHT22;10678;51.002;4.786;2023-11-21T02:28:38;9.50;99.90
21039;DHT22;10678;51.002;4.786;2023-11-21T02:31:04;9.40;99.90
21039;DHT22;10678;51.002;4.786;2023-11-21T02:33:31;9.50;99.90
21039;DHT22;10678;51.002;4.786;2023-11-21T02:36:02;9.50;99.90
21039;DHT22;10678;51.002;4.786;2023-11-21T02:38:28;9.60;99.90
21039;DHT22;10678;51.002;4.786;2023-11-21T02:40:54;9.60;99.90
21039;DHT22;10678;51.002;4.786;2023-11-21T02:43:19;9.70;99.90
21039;DHT22;10678;51.002;4.786;2023-11-21T02:45:45;9.70;99.90
21039;DHT22;10678;51.002;4.786;2023-11-21T02:48:11;9.70;99.90
21039;DHT22;10678;51.002;4.786;2023-11-21T02:50:36;9.70;99.90
21039;DHT22;10678;51.002;4.786;2023-11-21T02:53:03;9.70;99.90
21039;DHT22;10678;51.002;4.786;2023-11-21T02:55:31;9.70;99.90
21039;DHT22;10678;51.002;4.786;2023-11-21T02:58:00;9.70;99.90
21039;DHT22;10678;51.002;4.786;2023-11-21T03:00:26;9.70;99.90
21039;DHT22;10678;51.002;4.786;2023-11-21T03:02:51;9.70;99.90
21039;DHT22;10678;51.002;4.786;2023-11-21T03:05:17;9.70;99.90
21039;DHT22;10678;51.002;4.786;2023-11-21T03:07:43;9.70;99.90
21039;DHT22;10678;51.002;4.786;2023-11-21T03:10:09;9.70;99.90
21039;DHT22;10678;51.002;4.786;2023-11-21T03:12:36;9.70;99.90
21039;DHT22;10678;51.002;4.786;2023-11-21T03:15:02;9.60;99.90
21039;DHT22;10678;51.002;4.786;2023-11-21T03:17:28;9.70;99.90
21039;DHT22;10678;51.002;4.786;2023-11-21T03:19:54;9.70;99.90
21039;DHT22;10678;51.002;4.786;2023-11-21T03:22:20;9.70;99.90
21039;DHT22;10678;51.002;4.786;2023-11-21T03:24:46;9.70;99.90
21039;DHT22;10678;51.002;4.786;2023-11-21T03:27:11;9.80;99.90
21039;DHT22;10678;51.002;4.786;2023-11-21T03:29:37;9.80;99.90
21039;DHT22;10678;51.002;4.786;2023-11-21T03:32:03;9.90;99.90
21039;DHT22;10678;51.002;4.786;2023-11-21T03:34:29;9.90;99.90
21039;DHT22;10678;51.002;4.786;2023-11-21T03:36:55;9.90;99.90
21039;DHT22;10678;51.002;4.786;2023-11-21T03:39:21;10.00;99.90
21039;DHT22;10678;51.002;4.786;2023-11-21T03:41:47;10.10;99.90
21039;DHT22;10678;51.002;4.786;2023-11-21T03:44:14;10.00;99.90
21039;DHT22;10678;51.002;4.786;2023-11-21T03:46:39;10.10;99.90
21039;DHT22;10678;51.002;4.786;2023-11-21T03:49:05;10.10;99.90
21039;DHT22;10678;51.002;4.786;2023-11-21T03:51:31;10.10;99.90
21039;DHT22;10678;51.002;4.786;2023-11-21T03:53:56;10.10;99.90
21039;DHT22;10678;51.002;4.786;2023-11-21T03:56:22;10.10;99.90
21039;DHT22;10678;51.002;4.786;2023-11-21T03:58:48;10.10;99.90
21039;DHT22;10678;51.002;4.786;2023-11-21T04:01:23;10.10;99.90
21039;DHT22;10678;51.002;4.786;2023-11-21T04:03:49;10.10;99.90
21039;DHT22;10678;51.002;4.786;2023-11-21T04:06:16;10.20;99.90
21039;DHT22;10678;51.002;4.786;2023-11-21T04:08:43;10.20;99.90
21039;DHT22;10678;51.002;4.786;2023-11-21T04:11:10;10.20;99.90
21039;DHT22;10678;51.002;4.786;2023-11-21T04:13:38;10.30;99.90
21039;DHT22;10678;51.002;4.786;2023-11-21T04:16:05;10.30;99.90
21039;DHT22;10678;51.002;4.786;2023-11-21T04:18:30;10.30;99.90
21039;DHT22;10678;51.002;4.786;2023-11-21T04:20:56;10.30;99.90
21039;DHT22;10678;51.002;4.786;2023-11-21T04:23:22;10.30;99.90
21039;DHT22;10678;51.002;4.786;2023-11-21T04:25:47;10.40;99.90
21039;DHT22;10678;51.002;4.786;2023-11-21T04:28:13;10.40;99.90
21039;DHT22;10678;51.002;4.786;2023-11-21T04:30:39;10.40;99.90
21039;DHT22;10678;51.002;4.786;2023-11-21T04:33:05;10.40;99.90
21039;DHT22;10678;51.002;4.786;2023-11-21T04:35:30;10.50;99.90
21039;DHT22;10678;51.002;4.786;2023-11-21T04:37:56;10.50;99.90
21039;DHT22;10678;51.002;4.786;2023-11-21T04:40:22;10.50;99.90
21039;DHT22;10678;51.002;4.786;2023-11-21T04:42:48;10.50;99.90
21039;DHT22;10678;51.002;4.786;2023-11-21T04:45:14;10.60;99.90
21039;DHT22;10678;51.002;4.786;2023-11-21T04:47:39;10.60;99.90
21039;DHT22;10678;51.002;4.786;2023-11-21T04:50:05;10.60;99.90
21039;DHT22;10678;51.002;4.786;2023-11-21T04:52:31;10.60;99.90
21039;DHT22;10678;51.002;4.786;2023-11-21T04:54:58;10.70;99.90
21039;DHT22;10678;51.002;4.786;2023-11-21T04:57:26;10.70;99.90
21039;DHT22;10678;51.002;4.786;2023-11-21T04:59:54;10.70;99.90
21039;DHT22;10678;51.002;4.786;2023-11-21T05:02:19;10.80;99.90
21039;DHT22;10678;51.002;4.786;2023-11-21T05:04:46;10.80;99.90
21039;DHT22;10678;51.002;4.786;2023-11-21T05:07:12;10.80;99.90
21039;DHT22;10678;51.002;4.786;2023-11-21T05:09:42;10.80;99.90
21039;DHT22;10678;51.002;4.786;2023-11-21T05:12:09;10.80;99.90
21039;DHT22;10678;51.002;4.786;2023-11-21T05:14:36;10.90;99.90
21039;DHT22;10678;51.002;4.786;2023-11-21T05:17:01;10.90;99.90
21039;DHT22;10678;51.002;4.786;2023-11-21T05:19:28;10.90;99.90
21039;DHT22;10678;51.002;4.786;2023-11-21T05:21:54;10.90;99.90
21039;DHT22;10678;51.002;4.786;2023-11-21T05:24:19;10.90;99.90
21039;DHT22;10678;51.002;4.786;2023-11-21T05:26:45;10.90;99.90
21039;DHT22;10678;51.002;4.786;2023-11-21T05:29:10;10.90;99.90
21039;DHT22;10678;51.002;4.786;2023-11-21T05:31:36;10.90;99.90
21039;DHT22;10678;51.002;4.786;2023-11-21T05:34:03;11.00;99.90
21039;DHT22;10678;51.002;4.786;2023-11-21T05:36:30;11.00;99.90
21039;DHT22;10678;51.002;4.786;2023-11-21T05:38:56;11.00;99.90
21039;DHT22;10678;51.002;4.786;2023-11-21T05:41:22;11.00;99.90
21039;DHT22;10678;51.002;4.786;2023-11-21T05:43:48;11.00;99.90
21039;DHT22;10678;51.002;4.786;2023-11-21T05:46:14;11.00;99.90
21039;DHT22;10678;51.002;4.786;2023-11-21T05:48:40;11.00;99.90
21039;DHT22;10678;51.002;4.786;2023-11-21T05:51:06;11.10;99.90
21039;DHT22;10678;51.002;4.786;2023-11-21T05:53:33;11.10;99.90
21039;DHT22;10678;51.002;4.786;2023-11-21T05:55:59;11.10;99.90
21039;DHT22;10678;51.002;4.786;2023-11-21T05:58:25;11.10;99.90
21039;DHT22;10678;51.002;4.786;2023-11-21T06:00:51;11.10;99.90
21039;DHT22;10678;51.002;4.786;2023-11-21T06:03:16;11.10;99.90
21039;DHT22;10678;51.002;4.786;2023-11-21T06:05:43;11.10;99.90
21039;DHT22;10678;51.002;4.786;2023-11-21T06:08:09;11.10;99.90
21039;DHT22;10678;51.002;4.786;2023-11-21T06:10:34;11.20;99.90
21039;DHT22;10678;51.002;4.786;2023-11-21T06:13:00;11.20;99.90
21039;DHT22;10678;51.002;4.786;2023-11-21T06:15:26;11.10;99.90
21039;DHT22;10678;51.002;4.786;2023-11-21T06:17:51;11.10;99.90
21039;DHT22;10678;51.002;4.786;2023-11-21T06:20:18;11.20;99.90
21039;DHT22;10678;51.002;4.786;2023-11-21T06:22:45;11.20;99.90
21039;DHT22;10678;51.002;4.786;2023-11-21T06:25:12;11.20;99.90
21039;DHT22;10678;51.002;4.786;2023-11-21T06:27:40;11.20;99.90
21039;DHT22;10678;51.002;4.786;2023-11-21T06:30:07;11.10;99.90
21039;DHT22;10678;51.002;4.786;2023-11-21T06:32:35;11.20;99.90
21039;DHT22;10678;51.002;4.786;2023-11-21T06:35:04;11.20;99.90
21039;DHT22;10678;51.002;4.786;2023-11-21T06:37:31;11.20;99.90
21039;DHT22;10678;51.002;4.786;2023-11-21T06:39:58;11.20;99.90
21039;DHT22;10678;51.002;4.786;2023-11-21T06:42:24;11.20;99.90
21039;DHT22;10678;51.002;4.786;2023-11-21T06:44:51;11.20;99.90
21039;DHT22;10678;51.002;4.786;2023-11-21T06:47:20;11.20;99.90
21039;DHT22;10678;51.002;4.786;2023-11-21T06:49:46;11.20;99.90
21039;DHT22;10678;51.002;4.786;2023-11-21T06:52:14;11.20;99.90
21039;DHT22;10678;51.002;4.786;2023-11-21T06:54:40;11.20;99.90
21039;DHT22;10678;51.002;4.786;2023-11-21T06:57:06;11.20;99.90
21039;DHT22;10678;51.002;4.786;2023-11-21T06:59:31;11.20;99.90
21039;DHT22;10678;51.002;4.786;2023-11-21T07:01:57;11.30;99.90
21039;DHT22;10678;51.002;4.786;2023-11-21T07:04:23;11.30;99.90
21039;DHT22;10678;51.002;4.786;2023-11-21T07:06:51;11.20;99.90
21039;DHT22;10678;51.002;4.786;2023-11-21T07:09:17;11.20;99.90
21039;DHT22;10678;51.002;4.786;2023-11-21T07:11:42;11.20;99.90
21039;DHT22;10678;51.002;4.786;2023-11-21T07:14:08;11.20;99.90
21039;DHT22;10678;51.002;4.786;2023-11-21T07:16:37;11.20;99.90
21039;DHT22;10678;51.002;4.786;2023-11-21T07:19:06;11.20;99.90
21039;DHT22;10678;51.002;4.786;2023-11-21T07:21:36;11.20;99.90
21039;DHT22;10678;51.002;4.786;2023-11-21T07:24:05;11.20;99.90
21039;DHT22;10678;51.002;4.786;2023-11-21T07:26:32;11.10;99.90
21039;DHT22;10678;51.002;4.786;2023-11-21T07:28:59;11.20;99.90
21039;DHT22;10678;51.002;4.786;2023-11-21T07:31:24;11.20;99.90
21039;DHT22;10678;51.002;4.786;2023-11-21T07:33:51;11.20;99.90
21039;DHT22;10678;51.002;4.786;2023-11-21T07:36:17;11.30;99.90
21039;DHT22;10678;51.002;4.786;2023-11-21T07:38:49;11.30;99.90
21039;DHT22;10678;51.002;4.786;2023-11-21T07:41:15;11.30;99.90
21039;DHT22;10678;51.002;4.786;2023-11-21T07:43:41;11.40;99.90
21039;DHT22;10678;51.002;4.786;2023-11-21T07:46:07;11.30;99.90
21039;DHT22;10678;51.002;4.786;2023-11-21T07:48:34;11.30;99.90
21039;DHT22;10678;51.002;4.786;2023-11-21T07:51:01;11.40;99.90
21039;DHT22;10678;51.002;4.786;2023-11-21T07:53:29;11.40;99.90
21039;DHT22;10678;51.002;4.786;2023-11-21T07:55:55;11.50;99.90
21039;DHT22;10678;51.002;4.786;2023-11-21T07:58:21;11.50;99.90
21039;DHT22;10678;51.002;4.786;2023-11-21T08:00:47;11.50;99.90
21039;DHT22;10678;51.002;4.786;2023-11-21T08:03:15;11.60;99.90
21039;DHT22;10678;51.002;4.786;2023-11-21T08:05:42;11.50;99.90
21039;DHT22;10678;51.002;4.786;2023-11-21T08:08:08;11.60;99.90
21039;DHT22;10678;51.002;4.786;2023-11-21T08:10:34;11.70;99.90
21039;DHT22;10678;51.002;4.786;2023-11-21T08:13:01;11.70;99.90
21039;DHT22;10678;51.002;4.786;2023-11-21T08:15:27;11.70;99.90
21039;DHT22;10678;51.002;4.786;2023-11-21T08:17:52;11.80;99.90
21039;DHT22;10678;51.002;4.786;2023-11-21T08:20:18;11.70;99.90
21039;DHT22;10678;51.002;4.786;2023-11-21T08:22:44;11.80;99.90
21039;DHT22;10678;51.002;4.786;2023-11-21T08:25:10;11.80;99.90
21039;DHT22;10678;51.002;4.786;2023-11-21T08:27:36;11.80;99.90
21039;DHT22;10678;51.002;4.786;2023-11-21T08:30:03;11.80;99.90
21039;DHT22;10678;51.002;4.786;2023-11-21T08:32:29;11.90;99.90
21039;DHT22;10678;51.002;4.786;2023-11-21T08:34:57;11.90;99.90
21039;DHT22;10678;51.002;4.786;2023-11-21T08:37:23;11.90;99.90
21039;DHT22;10678;51.002;4.786;2023-11-21T08:39:49;12.00;99.90
21039;DHT22;10678;51.002;4.786;2023-11-21T08:42:15;12.00;99.90
21039;DHT22;10678;51.002;4.786;2023-11-21T08:44:41;12.00;99.90
21039;DHT22;10678;51.002;4.786;2023-11-21T08:47:07;12.10;99.90
21039;DHT22;10678;51.002;4.786;2023-11-21T08:49:32;12.00;99.90
21039;DHT22;10678;51.002;4.786;2023-11-21T08:51:58;12.10;99.90
21039;DHT22;10678;51.002;4.786;2023-11-21T08:54:25;12.20;99.90
21039;DHT22;10678;51.002;4.786;2023-11-21T08:56:52;12.30;99.90
21039;DHT22;10678;51.002;4.786;2023-11-21T08:59:18;12.20;99.90
21039;DHT22;10678;51.002;4.786;2023-11-21T09:01:45;12.20;99.90
21039;DHT22;10678;51.002;4.786;2023-11-21T09:04:12;12.40;99.90
21039;DHT22;10678;51.002;4.786;2023-11-21T09:06:39;12.50;99.90
21039;DHT22;10678;51.002;4.786;2023-11-21T09:09:05;12.50;99.90
21039;DHT22;10678;51.002;4.786;2023-11-21T09:11:32;12.50;99.90
21039;DHT22;10678;51.002;4.786;2023-11-21T09:13:59;12.50;99.90
21039;DHT22;10678;51.002;4.786;2023-11-21T09:16:25;12.50;99.90
21039;DHT22;10678;51.002;4.786;2023-11-21T09:18:51;12.60;99.90
21039;DHT22;10678;51.002;4.786;2023-11-21T09:21:17;12.70;99.90
21039;DHT22;10678;51.002;4.786;2023-11-21T09:23:44;12.60;99.90
21039;DHT22;10678;51.002;4.786;2023-11-21T09:26:10;12.70;99.90
21039;DHT22;10678;51.002;4.786;2023-11-21T09:28:35;12.70;99.90
21039;DHT22;10678;51.002;4.786;2023-11-21T09:31:04;12.70;99.90
21039;DHT22;10678;51.002;4.786;2023-11-21T09:33:30;12.80;99.90
21039;DHT22;10678;51.002;4.786;2023-11-21T09:35:57;12.80;99.90
21039;DHT22;10678;51.002;4.786;2023-11-21T09:38:23;12.90;99.90
21039;DHT22;10678;51.002;4.786;2023-11-21T09:40:49;12.90;99.90
21039;DHT22;10678;51.002;4.786;2023-11-21T09:43:19;13.00;99.90
21039;DHT22;10678;51.002;4.786;2023-11-21T09:45:46;13.10;99.90
21039;DHT22;10678;51.002;4.786;2023-11-21T09:48:14;13.30;99.90
21039;DHT22;10678;51.002;4.786;2023-11-21T09:50:42;13.40;99.90
21039;DHT22;10678;51.002;4.786;2023-11-21T09:53:22;13.40;99.90
21039;DHT22;10678;51.002;4.786;2023-11-21T09:55:51;13.30;99.90
21039;DHT22;10678;51.002;4.786;2023-11-21T09:58:18;13.50;99.90
21039;DHT22;10678;51.002;4.786;2023-11-21T10:00:46;13.40;99.90
21039;DHT22;10678;51.002;4.786;2023-11-21T10:03:12;13.30;99.90
21039;DHT22;10678;51.002;4.786;2023-11-21T10:05:39;13.30;99.90
21039;DHT22;10678;51.002;4.786;2023-11-21T10:08:09;13.30;99.90
21039;DHT22;10678;51.002;4.786;2023-11-21T10:10:36;13.30;99.90
21039;DHT22;10678;51.002;4.786;2023-11-21T10:13:04;13.20;99.90
21039;DHT22;10678;51.002;4.786;2023-11-21T10:15:36;13.30;99.90
21039;DHT22;10678;51.002;4.786;2023-11-21T10:18:03;13.30;99.90
21039;DHT22;10678;51.002;4.786;2023-11-21T10:20:30;13.40;99.90
21039;DHT22;10678;51.002;4.786;2023-11-21T10:22:56;13.40;99.90
21039;DHT22;10678;51.002;4.786;2023-11-21T10:25:22;13.40;99.90
21039;DHT22;10678;51.002;4.786;2023-11-21T10:27:49;13.50;99.90
21039;DHT22;10678;51.002;4.786;2023-11-21T10:30:17;13.50;99.90
21039;DHT22;10678;51.002;4.786;2023-11-21T10:32:43;13.50;99.90
21039;DHT22;10678;51.002;4.786;2023-11-21T10:35:10;13.50;99.90
21039;DHT22;10678;51.002;4.786;2023-11-21T10:37:41;13.50;99.90
21039;DHT22;10678;51.002;4.786;2023-11-21T10:40:11;13.40;99.90
21039;DHT22;10678;51.002;4.786;2023-11-21T10:42:41;13.50;99.90
21039;DHT22;10678;51.002;4.786;2023-11-21T10:45:10;13.40;99.90
21039;DHT22;10678;51.002;4.786;2023-11-21T10:47:43;13.40;99.90
21039;DHT22;10678;51.002;4.786;2023-11-21T10:50:09;13.40;99.90
21039;DHT22;10678;51.002;4.786;2023-11-21T10:52:45;13.30;99.90
21039;DHT22;10678;51.002;4.786;2023-11-21T10:55:19;13.30;99.90
21039;DHT22;10678;51.002;4.786;2023-11-21T10:57:52;13.20;99.90
21039;DHT22;10678;51.002;4.786;2023-11-21T11:00:18;13.20;99.90
21039;DHT22;10678;51.002;4.786;2023-11-21T11:02:48;13.20;99.90
21039;DHT22;10678;51.002;4.786;2023-11-21T11:05:16;13.20;99.90
21039;DHT22;10678;51.002;4.786;2023-11-21T11:07:44;13.10;99.90
21039;DHT22;10678;51.002;4.786;2023-11-21T11:10:13;13.10;99.90
21039;DHT22;10678;51.002;4.786;2023-11-21T11:12:43;13.00;99.90
21039;DHT22;10678;51.002;4.786;2023-11-21T11:15:11;12.90;99.90
21039;DHT22;10678;51.002;4.786;2023-11-21T11:17:37;13.00;99.90
21039;DHT22;10678;51.002;4.786;2023-11-21T11:20:09;12.90;99.90
21039;DHT22;10678;51.002;4.786;2023-11-21T11:23:07;13.10;99.90
21039;DHT22;10678;51.002;4.786;2023-11-21T11:28:35;13.20;99.90
21039;DHT22;10678;51.002;4.786;2023-11-21T11:37:20;13.40;99.90
21039;DHT22;10678;51.002;4.786;2023-11-21T11:39:49;13.50;99.90
21039;DHT22;10678;51.002;4.786;2023-11-21T11:42:17;13.60;99.90
21039;DHT22;10678;51.002;4.786;2023-11-21T11:47:15;13.50;99.90
21039;DHT22;10678;51.002;4.786;2023-11-21T11:52:40;13.60;99.90
21039;DHT22;10678;51.002;4.786;2023-11-21T11:55:08;13.90;99.90
21039;DHT22;10678;51.002;4.786;2023-11-21T11:57:38;14.10;99.90
21039;DHT22;10678;51.002;4.786;2023-11-21T12:02:36;14.20;99.90
21039;DHT22;10678;51.002;4.786;2023-11-21T12:05:10;14.20;99.90
21039;DHT22;10678;51.002;4.786;2023-11-21T12:07:51;14.20;99.90
21039;DHT22;10678;51.002;4.786;2023-11-21T12:10:20;14.20;99.90
21039;DHT22;10678;51.002;4.786;2023-11-21T12:12:49;14.20;99.90
21039;DHT22;10678;51.002;4.786;2023-11-21T12:15:15;14.20;99.90
21039;DHT22;10678;51.002;4.786;2023-11-21T12:17:42;14.10;99.90
21039;DHT22;10678;51.002;4.786;2023-11-21T12:20:09;14.10;99.90
21039;DHT22;10678;51.002;4.786;2023-11-21T12:22:55;13.90;99.90
21039;DHT22;10678;51.002;4.786;2023-11-21T12:25:22;14.00;99.90
21039;DHT22;10678;51.002;4.786;2023-11-21T12:27:52;13.90;99.90
21039;DHT22;10678;51.002;4.786;2023-11-21T12:30:22;14.00;99.90
21039;DHT22;10678;51.002;4.786;2023-11-21T12:32:52;14.00;99.90
21039;DHT22;10678;51.002;4.786;2023-11-21T12:35:19;13.90;99.90
21039;DHT22;10678;51.002;4.786;2023-11-21T12:37:47;13.80;99.90
21039;DHT22;10678;51.002;4.786;2023-11-21T12:40:13;13.80;99.90
21039;DHT22;10678;51.002;4.786;2023-11-21T12:42:46;13.90;99.90
21039;DHT22;10678;51.002;4.786;2023-11-21T12:47:47;14.10;99.90
21039;DHT22;10678;51.002;4.786;2023-11-21T12:50:13;14.10;99.90
21039;DHT22;10678;51.002;4.786;2023-11-21T12:52:45;14.10;99.90
21039;DHT22;10678;51.002;4.786;2023-11-21T12:55:18;14.10;99.90
21039;DHT22;10678;51.002;4.786;2023-11-21T12:57:48;14.10;99.90
21039;DHT22;10678;51.002;4.786;2023-11-21T13:00:18;14.10;99.90
21039;DHT22;10678;51.002;4.786;2023-11-21T13:02:54;14.00;99.90
21039;DHT22;10678;51.002;4.786;2023-11-21T13:05:29;13.80;99.90
21039;DHT22;10678;51.002;4.786;2023-11-21T13:08:00;13.80;99.90
21039;DHT22;10678;51.002;4.786;2023-11-21T13:10:29;13.90;99.90
21039;DHT22;10678;51.002;4.786;2023-11-21T13:12:58;14.00;99.90
21039;DHT22;10678;51.002;4.786;2023-11-21T13:15:27;13.90;99.90
21039;DHT22;10678;51.002;4.786;2023-11-21T13:17:53;13.70;99.90
21039;DHT22;10678;51.002;4.786;2023-11-21T13:20:19;13.60;99.90
21039;DHT22;10678;51.002;4.786;2023-11-21T13:22:54;13.70;99.90
21039;DHT22;10678;51.002;4.786;2023-11-21T13:25:23;13.80;99.90
21039;DHT22;10678;51.002;4.786;2023-11-21T13:27:49;13.80;99.90
21039;DHT22;10678;51.002;4.786;2023-11-21T13:30:16;13.80;99.90
21039;DHT22;10678;51.002;4.786;2023-11-21T13:32:43;13.60;99.90
21039;DHT22;10678;51.002;4.786;2023-11-21T13:35:10;13.60;99.90
21039;DHT22;10678;51.002;4.786;2023-11-21T13:37:50;13.70;99.90
21039;DHT22;10678;51.002;4.786;2023-11-21T13:40:20;13.90;99.90
21039;DHT22;10678;51.002;4.786;2023-11-21T13:42:49;13.90;99.90
21039;DHT22;10678;51.002;4.786;2023-11-21T13:45:21;13.90;99.90
21039;DHT22;10678;51.002;4.786;2023-11-21T13:47:49;13.80;99.90
21039;DHT22;10678;51.002;4.786;2023-11-21T13:50:17;13.90;99.90
21039;DHT22;10678;51.002;4.786;2023-11-21T13:52:48;13.90;99.90
21039;DHT22;10678;51.002;4.786;2023-11-21T13:55:15;14.00;99.90
21039;DHT22;10678;51.002;4.786;2023-11-21T13:57:42;14.00;99.90
21039;DHT22;10678;51.002;4.786;2023-11-21T14:00:12;14.10;99.90
21039;DHT22;10678;51.002;4.786;2023-11-21T14:02:58;14.00;99.90
21039;DHT22;10678;51.002;4.786;2023-11-21T14:05:27;14.00;99.90
21039;DHT22;10678;51.002;4.786;2023-11-21T14:07:57;14.00;99.90
21039;DHT22;10678;51.002;4.786;2023-11-21T14:10:30;14.10;99.90
21039;DHT22;10678;51.002;4.786;2023-11-21T14:13:06;14.00;99.90
21039;DHT22;10678;51.002;4.786;2023-11-21T14:15:32;13.90;99.90
21039;DHT22;10678;51.002;4.786;2023-11-21T14:18:02;13.80;99.90
21039;DHT22;10678;51.002;4.786;2023-11-21T14:20:33;13.70;99.90
21039;DHT22;10678;51.002;4.786;2023-11-21T14:23:01;13.60;99.90
21039;DHT22;10678;51.002;4.786;2023-11-21T14:25:27;13.60;99.90
21039;DHT22;10678;51.002;4.786;2023-11-21T14:27:53;13.70;99.90
21039;DHT22;10678;51.002;4.786;2023-11-21T14:30:19;13.60;99.90
21039;DHT22;10678;51.002;4.786;2023-11-21T14:32:47;13.70;99.90
21039;DHT22;10678;51.002;4.786;2023-11-21T14:35:13;13.70;99.90
21039;DHT22;10678;51.002;4.786;2023-11-21T14:37:39;13.60;99.90
21039;DHT22;10678;51.002;4.786;2023-11-21T14:40:05;13.50;99.90
21039;DHT22;10678;51.002;4.786;2023-11-21T14:42:34;13.40;99.90
21039;DHT22;10678;51.002;4.786;2023-11-21T14:45:03;13.30;99.90
21039;DHT22;10678;51.002;4.786;2023-11-21T14:47:32;13.30;99.90
21039;DHT22;10678;51.002;4.786;2023-11-21T14:49:58;13.30;99.90
21039;DHT22;10678;51.002;4.786;2023-11-21T14:52:25;13.10;99.90
21039;DHT22;10678;51.002;4.786;2023-11-21T14:55:04;13.20;99.90
21039;DHT22;10678;51.002;4.786;2023-11-21T14:57:48;13.20;99.90
21039;DHT22;10678;51.002;4.786;2023-11-21T15:00:18;13.20;99.90
21039;DHT22;10678;51.002;4.786;2023-11-21T15:03:11;13.30;99.90
21039;DHT22;10678;51.002;4.786;2023-11-21T15:05:50;13.20;99.90
21039;DHT22;10678;51.002;4.786;2023-11-21T15:08:15;13.30;99.90
21039;DHT22;10678;51.002;4.786;2023-11-21T15:10:51;13.30;99.90
21039;DHT22;10678;51.002;4.786;2023-11-21T15:13:20;13.30;99.90
21039;DHT22;10678;51.002;4.786;2023-11-21T15:15:48;13.40;99.90
21039;DHT22;10678;51.002;4.786;2023-11-21T15:18:14;13.30;99.90
21039;DHT22;10678;51.002;4.786;2023-11-21T15:20:40;13.30;99.90
21039;DHT22;10678;51.002;4.786;2023-11-21T15:23:06;13.20;99.90
21039;DHT22;10678;51.002;4.786;2023-11-21T15:25:32;13.20;99.90
21039;DHT22;10678;51.002;4.786;2023-11-21T15:27:59;13.10;99.90
21039;DHT22;10678;51.002;4.786;2023-11-21T15:30:25;13.10;99.90
21039;DHT22;10678;51.002;4.786;2023-11-21T15:32:51;13.10;99.90
21039;DHT22;10678;51.002;4.786;2023-11-21T15:35:18;13.00;99.90
21039;DHT22;10678;51.002;4.786;2023-11-21T15:37:44;13.00;99.90
21039;DHT22;10678;51.002;4.786;2023-11-21T15:40:11;12.90;99.90
21039;DHT22;10678;51.002;4.786;2023-11-21T15:42:38;12.90;99.90
21039;DHT22;10678;51.002;4.786;2023-11-21T15:45:05;12.90;99.90
21039;DHT22;10678;51.002;4.786;2023-11-21T15:47:33;12.90;99.90
21039;DHT22;10678;51.002;4.786;2023-11-21T15:49:59;12.90;99.90
21039;DHT22;10678;51.002;4.786;2023-11-21T15:52:24;12.80;99.90
21039;DHT22;10678;51.002;4.786;2023-11-21T15:54:50;12.90;99.90